createdAt,value
2019-04-21T00:01:57.791Z,9.33
2019-04-21T00:04:40.699Z,9.37
2019-04-21T00:07:14.491Z,8.38
2019-04-21T00:12:19.672Z,9.30
2019-04-21T00:14:39.576Z,9.87
2019-04-21T00:17:05.366Z,9.80
2019-04-21T00:19:38.985Z,9.57
2019-04-21T00:22:21.545Z,7.93
2019-04-21T00:24:51.900Z,8.17
2019-04-21T00:27:24.561Z,8.93
2019-04-21T00:29:58.842Z,10.33
2019-04-21T00:32:22.192Z,9.07
2019-04-21T00:34:41.086Z,8.83
2019-04-21T00:37:20.119Z,9.30
2019-04-21T00:40:02.236Z,8.53
2019-04-21T00:42:31.552Z,10.08
2019-04-21T00:44:55.658Z,8.43
2019-04-21T00:47:30.379Z,8.63
2019-04-21T00:50:00.338Z,8.33
2019-04-21T00:55:29.642Z,10.30
2019-04-21T00:57:51.898Z,9.37
2019-04-21T01:00:18.696Z,8.93
2019-04-21T01:02:53.317Z,8.77
2019-04-21T01:05:16.938Z,8.63
2019-04-21T01:07:45.539Z,9.40
2019-04-21T01:10:12.195Z,10.67
2019-04-21T01:12:53.116Z,8.60
2019-04-21T01:15:26.042Z,10.03
2019-04-21T01:17:48.116Z,9.37
2019-04-21T01:20:12.170Z,9.30
2019-04-21T01:22:25.349Z,11.30
2019-04-21T01:25:04.705Z,8.80
2019-04-21T01:27:48.310Z,10.53
2019-04-21T01:30:18.819Z,9.03
2019-04-21T01:32:51.230Z,8.58
2019-04-21T01:35:19.346Z,8.73
2019-04-21T01:37:49.635Z,9.40
2019-04-21T01:40:22.867Z,8.47
2019-04-21T01:42:45.794Z,8.03
2019-04-21T01:45:18.877Z,8.97
2019-04-21T01:47:40.516Z,9.20
2019-04-21T01:50:05.707Z,8.10
2019-04-21T01:52:51.420Z,8.70
2019-04-21T01:55:41.379Z,9.07
2019-04-21T01:58:02.274Z,8.73
2019-04-21T02:00:51.842Z,8.27
2019-04-21T02:03:36.249Z,8.93
2019-04-21T02:05:55.330Z,9.93
2019-04-21T02:08:18.229Z,11.00
2019-04-21T02:10:56.073Z,9.37
2019-04-21T02:13:17.578Z,9.83
2019-04-21T02:15:48.977Z,9.27
2019-04-21T02:18:20.424Z,9.40
2019-04-21T02:20:40.164Z,8.93
2019-04-21T02:23:28.262Z,9.10
2019-04-21T02:25:50.610Z,9.47
2019-04-21T02:28:30.450Z,8.53
2019-04-21T02:31:10.921Z,11.15
2019-04-21T02:36:15.436Z,9.53
2019-04-21T02:43:30.891Z,9.13
2019-04-21T02:46:10.300Z,8.93
2019-04-21T02:50:53.374Z,9.17
2019-04-21T02:54:03.786Z,9.17
2019-04-21T02:56:00.540Z,8.60
2019-04-21T03:01:23.725Z,8.83
2019-04-21T03:03:52.517Z,10.23
2019-04-21T03:06:39.388Z,10.20
2019-04-21T03:09:18.454Z,10.10
2019-04-21T03:11:35.026Z,9.33
2019-04-21T03:14:16.116Z,10.37
2019-04-21T03:16:31.170Z,9.23
2019-04-21T03:19:20.026Z,9.97
2019-04-21T03:21:38.771Z,11.83
2019-04-21T03:24:36.062Z,9.67
2019-04-21T03:26:55.857Z,10.33
2019-04-21T03:29:29.542Z,10.27
2019-04-21T03:39:09.474Z,9.07
2019-04-21T03:41:48.322Z,10.90
2019-04-21T03:44:16.609Z,8.93
2019-04-21T03:49:23.085Z,9.60
2019-04-21T03:51:50.567Z,9.23
2019-04-21T03:54:20.149Z,9.70
2019-04-21T03:57:03.183Z,8.97
2019-04-21T04:01:58.371Z,10.03
2019-04-21T04:04:28.260Z,10.43
2019-04-21T04:07:14.338Z,9.17
2019-04-21T04:09:36.792Z,9.87
2019-04-21T04:14:38.854Z,10.57
2019-04-21T04:19:45.407Z,9.83
2019-04-21T04:22:22.862Z,9.87
2019-04-21T04:24:39.590Z,10.45
2019-04-21T04:27:07.916Z,9.73
2019-04-21T04:29:32.075Z,12.50
2019-04-21T04:34:45.322Z,9.57
2019-04-21T04:37:12.341Z,10.35
2019-04-21T04:42:31.996Z,9.17
2019-04-21T04:47:16.844Z,9.23
2019-04-21T04:49:49.782Z,10.10
2019-04-21T04:52:31.145Z,10.10
2019-04-21T04:57:18.187Z,10.13
2019-04-21T04:59:43.404Z,9.60
2019-04-21T05:02:23.950Z,9.93
2019-04-21T05:07:15.113Z,9.97
2019-04-21T05:12:08.961Z,9.93
2019-04-21T05:17:23.005Z,10.47
2019-04-21T05:19:57.419Z,11.03
2019-04-21T05:22:17.210Z,9.70
2019-04-21T05:24:36.064Z,10.37
2019-04-21T05:27:03.200Z,9.70
2019-04-21T05:29:37.557Z,10.10
2019-04-21T05:32:13.262Z,10.03
2019-04-21T05:34:39.389Z,10.33
2019-04-21T05:37:14.230Z,11.93
2019-04-21T05:39:45.163Z,9.70
2019-04-21T05:42:07.814Z,11.33
2019-04-21T05:47:25.010Z,10.83
2019-04-21T05:49:57.186Z,10.10
2019-04-21T05:52:23.191Z,11.53
2019-04-21T05:57:29.106Z,10.53
2019-04-21T05:59:53.191Z,10.07
2019-04-21T06:05:14.493Z,12.57
2019-04-21T06:07:38.312Z,11.40
2019-04-21T06:09:59.456Z,10.33
2019-04-21T06:12:36.113Z,10.90
2019-04-21T06:15:01.027Z,10.43
2019-04-21T06:17:34.875Z,10.30
2019-04-21T06:20:02.948Z,10.73
2019-04-21T06:22:29.158Z,10.13
2019-04-21T06:25:31.173Z,10.43
2019-04-21T06:27:32.731Z,11.13
2019-04-21T06:30:01.891Z,10.77
2019-04-21T06:32:47.088Z,10.17
2019-04-21T06:37:46.875Z,8.87
2019-04-21T06:42:41.581Z,11.68
2019-04-21T06:45:31.279Z,10.10
2019-04-21T06:47:42.268Z,10.33
2019-04-21T06:50:11.991Z,10.40
2019-04-21T06:55:12.500Z,10.07
2019-04-21T06:57:41.100Z,10.23
2019-04-21T07:00:06.444Z,11.03
2019-04-21T07:05:07.557Z,12.68
2019-04-21T07:07:35.614Z,10.60
2019-04-21T07:10:10.698Z,11.47
2019-04-21T07:12:37.242Z,9.30
2019-04-21T07:15:20.154Z,9.63
2019-04-21T07:22:44.629Z,12.97
2019-04-21T07:25:11.648Z,10.57
2019-04-21T07:27:43.084Z,8.67
2019-04-21T07:30:12.831Z,10.50
2019-04-21T07:32:40.226Z,11.38
2019-04-21T07:35:09.425Z,10.60
2019-04-21T07:37:41.349Z,9.47
2019-04-21T07:40:05.482Z,8.83
2019-04-21T07:42:32.531Z,11.63
2019-04-21T07:45:05.203Z,9.50
2019-04-21T07:47:53.456Z,9.33
2019-04-21T07:50:27.442Z,10.30
2019-04-21T07:53:05.048Z,10.90
2019-04-21T07:57:55.929Z,11.47
2019-04-21T08:00:38.967Z,9.53
2019-04-21T08:03:00.335Z,10.63
2019-04-21T08:05:35.546Z,8.97
2019-04-21T08:08:19.062Z,8.60
2019-04-21T08:10:28.019Z,8.95
2019-04-21T08:13:00.113Z,9.07
2019-04-21T08:15:34.061Z,9.63
2019-04-21T08:18:07.224Z,8.63
2019-04-21T08:20:34.836Z,10.38
2019-04-21T08:23:11.083Z,15.13
2019-04-21T08:25:42.012Z,9.77
2019-04-21T08:28:05.221Z,9.30
2019-04-21T08:30:37.818Z,9.58
2019-04-21T08:38:08.669Z,9.77
2019-04-21T08:43:09.146Z,13.43
2019-04-21T08:45:44.987Z,10.70
2019-04-21T08:48:10.152Z,10.17
2019-04-21T08:50:33.905Z,9.65
2019-04-21T08:53:11.355Z,10.67
2019-04-21T08:56:04.478Z,13.23
2019-04-21T08:58:52.286Z,12.20
2019-04-21T09:01:34.278Z,8.53
2019-04-21T09:04:18.532Z,9.43
2019-04-21T09:06:50.080Z,9.48
2019-04-21T09:09:03.624Z,11.03
2019-04-21T09:11:33.666Z,8.53
2019-04-21T09:14:01.427Z,9.23
2019-04-21T09:16:30.731Z,8.73
2019-04-21T09:18:59.442Z,8.53
2019-04-21T09:21:39.492Z,11.07
2019-04-21T09:24:05.617Z,9.03
2019-04-21T09:26:31.057Z,8.70
2019-04-21T09:28:57.130Z,9.87
2019-04-21T09:31:23.401Z,9.53
2019-04-21T09:33:50.830Z,10.13
2019-04-21T09:36:21.177Z,9.10
2019-04-21T09:38:57.658Z,9.63
2019-04-21T09:41:20.860Z,12.57
2019-04-21T09:43:51.828Z,10.03
2019-04-21T09:46:18.470Z,8.75
2019-04-21T09:48:55.671Z,10.67
2019-04-21T09:51:17.827Z,8.97
2019-04-21T09:53:53.585Z,8.43
2019-04-21T09:56:23.860Z,9.33
2019-04-21T09:58:50.290Z,9.70
2019-04-21T10:01:22.715Z,8.00
2019-04-21T10:03:52.023Z,8.33
2019-04-21T10:06:18.777Z,8.77
2019-04-21T10:08:51.554Z,10.03
2019-04-21T10:11:19.549Z,8.77
2019-04-21T10:13:48.627Z,9.13
2019-04-21T10:16:21.920Z,8.45
2019-04-21T10:18:50.497Z,8.33
2019-04-21T10:21:19.794Z,8.95
2019-04-21T10:23:48.260Z,7.90
2019-04-21T10:26:16.851Z,8.17
2019-04-21T10:28:46.770Z,7.63
2019-04-21T10:31:16.616Z,8.87
2019-04-21T10:33:46.271Z,8.00
2019-04-21T10:36:15.206Z,6.87
2019-04-21T10:38:49.666Z,7.30
2019-04-21T10:41:15.045Z,6.90
2019-04-21T10:43:45.103Z,7.87
2019-04-21T10:46:14.867Z,10.27
2019-04-21T10:48:43.480Z,7.90
2019-04-21T10:51:13.035Z,7.13
2019-04-21T10:53:43.154Z,7.50
2019-04-21T10:56:19.962Z,8.43
2019-04-21T10:58:42.758Z,8.73
2019-04-21T11:01:19.044Z,7.50
2019-04-21T11:03:53.130Z,7.47
2019-04-21T11:06:21.858Z,7.50
2019-04-21T11:08:54.096Z,7.93
2019-04-21T11:11:21.764Z,6.90
2019-04-21T11:13:50.708Z,6.40
2019-04-21T11:16:19.301Z,6.47
2019-04-21T11:18:48.293Z,5.95
2019-04-21T11:21:16.969Z,6.03
2019-04-21T11:23:45.900Z,6.90
2019-04-21T11:26:15.709Z,6.53
2019-04-21T11:28:45.205Z,6.30
2019-04-21T11:31:15.395Z,6.40
2019-04-21T11:33:45.301Z,6.97
2019-04-21T11:36:15.279Z,7.62
2019-04-21T11:39:08.581Z,7.13
2019-04-21T11:41:27.999Z,6.87
2019-04-21T11:43:57.174Z,7.27
2019-04-21T11:46:26.769Z,6.67
2019-04-21T11:48:55.333Z,9.07
2019-04-21T11:51:24.905Z,7.67
2019-04-21T11:53:54.874Z,6.00
2019-04-21T11:56:23.522Z,5.13
2019-04-21T11:58:51.970Z,5.67
2019-04-21T12:01:21.308Z,6.60
2019-04-21T12:03:49.906Z,6.07
2019-04-21T12:06:19.391Z,7.13
2019-04-21T12:08:50.974Z,5.90
2019-04-21T12:11:18.137Z,7.40
2019-04-21T12:13:47.841Z,7.00
2019-04-21T12:16:17.014Z,6.47
2019-04-21T12:18:47.071Z,6.37
2019-04-21T12:21:15.857Z,7.50
2019-04-21T12:23:44.791Z,6.23
2019-04-21T12:26:13.911Z,8.17
2019-04-21T12:28:43.780Z,6.03
2019-04-21T12:31:14.105Z,6.07
2019-04-21T12:33:44.151Z,6.80
2019-04-21T12:36:13.780Z,7.05
2019-04-21T12:38:48.998Z,7.40
2019-04-21T12:41:12.896Z,6.93
2019-04-21T12:43:42.552Z,6.57
2019-04-21T12:46:11.991Z,7.43
2019-04-21T12:48:41.987Z,6.40
2019-04-21T12:51:12.170Z,6.23
2019-04-21T12:53:41.572Z,6.60
2019-04-21T12:56:11.595Z,6.40
2019-04-21T12:58:41.558Z,6.97
2019-04-21T13:01:10.129Z,6.13
2019-04-21T13:03:39.752Z,6.10
2019-04-21T13:06:09.757Z,6.17
2019-04-21T13:08:45.700Z,6.07
2019-04-21T13:11:09.601Z,5.33
2019-04-21T13:13:39.862Z,6.37
2019-04-21T13:16:09.632Z,5.90
2019-04-21T13:18:39.468Z,6.97
2019-04-21T13:21:08.312Z,6.20
2019-04-21T13:23:39.030Z,7.40
2019-04-21T13:26:08.389Z,6.10
2019-04-21T13:28:38.078Z,6.73
2019-04-21T13:31:06.576Z,5.87
2019-04-21T13:33:35.321Z,8.43
2019-04-21T13:36:04.946Z,8.08
2019-04-21T13:38:41.915Z,6.33
2019-04-21T13:41:22.725Z,6.17
2019-04-21T13:43:37.135Z,5.70
2019-04-21T13:46:07.937Z,6.00
2019-04-21T13:48:37.011Z,5.90
2019-04-21T13:51:05.412Z,5.80
2019-04-21T13:53:34.948Z,5.60
2019-04-21T13:56:04.695Z,6.60
2019-04-21T13:58:34.477Z,7.90
2019-04-21T14:01:03.556Z,9.97
2019-04-21T14:03:33.305Z,6.97
2019-04-21T14:06:02.577Z,7.90
2019-04-21T14:08:31.310Z,5.80
2019-04-21T14:10:59.941Z,7.07
2019-04-21T14:13:28.380Z,5.90
2019-04-21T14:15:57.962Z,5.80
2019-04-21T14:18:26.908Z,6.23
2019-04-21T14:20:55.600Z,6.80
2019-04-21T14:23:32.514Z,10.17
2019-04-21T14:25:55.472Z,5.47
2019-04-21T14:28:24.183Z,5.30
2019-04-21T14:30:52.658Z,4.93
2019-04-21T14:33:23.429Z,5.80
2019-04-21T14:35:52.642Z,6.93
2019-04-21T14:38:22.482Z,5.50
2019-04-21T14:40:52.139Z,6.60
2019-04-21T14:43:21.694Z,6.40
2019-04-21T14:45:54.801Z,5.53
2019-04-21T14:48:25.303Z,5.57
2019-04-21T14:51:13.884Z,6.40
2019-04-21T14:53:53.945Z,5.55
2019-04-21T14:56:22.403Z,6.08
2019-04-21T14:58:51.383Z,7.85
2019-04-21T15:01:19.883Z,6.30
2019-04-21T15:03:49.922Z,6.60
2019-04-21T15:06:19.009Z,9.07
2019-04-21T15:08:47.517Z,6.23
2019-04-21T15:11:16.109Z,6.63
2019-04-21T15:13:45.827Z,6.20
2019-04-21T15:16:15.082Z,5.53
2019-04-21T15:18:44.531Z,4.80
2019-04-21T15:21:13.317Z,4.95
2019-04-21T15:23:42.438Z,5.23
2019-04-21T15:26:12.242Z,5.00
2019-04-21T15:28:42.423Z,5.27
2019-04-21T15:31:12.739Z,4.97
2019-04-21T15:33:41.309Z,4.93
2019-04-21T15:36:11.080Z,5.33
2019-04-21T15:38:40.128Z,5.20
2019-04-21T15:41:10.730Z,4.77
2019-04-21T15:43:38.825Z,5.07
2019-04-21T15:46:08.879Z,4.97
2019-04-21T15:48:37.582Z,4.90
2019-04-21T15:51:08.569Z,6.13
2019-04-21T15:53:37.773Z,4.60
2019-04-21T15:56:15.223Z,5.23
2019-04-21T15:58:52.664Z,5.87
2019-04-21T16:01:39.032Z,6.83
2019-04-21T16:04:08.066Z,4.70
2019-04-21T16:06:37.318Z,4.77
2019-04-21T16:09:08.477Z,5.10
2019-04-21T16:11:37.910Z,4.43
2019-04-21T16:14:07.942Z,4.07
2019-04-21T16:16:36.575Z,4.50
2019-04-21T16:19:06.093Z,4.57
2019-04-21T16:21:38.359Z,5.57
2019-04-21T16:24:06.628Z,3.90
2019-04-21T16:26:35.286Z,6.60
2019-04-21T16:29:04.908Z,4.60
2019-04-21T16:31:34.273Z,4.67
2019-04-21T16:34:03.223Z,3.97
2019-04-21T16:36:31.906Z,4.37
2019-04-21T16:39:01.739Z,4.00
2019-04-21T16:41:30.459Z,5.07
2019-04-21T16:43:58.995Z,4.07
2019-04-21T16:46:27.770Z,4.03
2019-04-21T16:48:56.170Z,4.70
2019-04-21T16:51:24.628Z,5.13
2019-04-21T16:53:55.727Z,5.63
2019-04-21T16:56:26.920Z,5.20
2019-04-21T16:58:57.043Z,5.93
2019-04-21T17:01:28.127Z,6.33
2019-04-21T17:03:58.273Z,3.90
2019-04-21T17:06:27.075Z,4.23
2019-04-21T17:08:56.703Z,4.23
2019-04-21T17:11:29.293Z,3.70
2019-04-21T17:13:56.563Z,4.70
2019-04-21T17:17:03.069Z,4.93
2019-04-21T17:19:05.224Z,4.83
2019-04-21T17:21:27.906Z,4.70
2019-04-21T17:23:56.714Z,4.93
2019-04-21T17:26:26.801Z,4.70
2019-04-21T17:28:56.607Z,4.33
2019-04-21T17:31:26.526Z,4.10
2019-04-21T17:34:01.969Z,4.27
2019-04-21T17:36:25.513Z,4.03
2019-04-21T17:38:54.300Z,4.47
2019-04-21T17:41:33.402Z,4.00
2019-04-21T17:43:54.377Z,4.47
2019-04-21T17:46:33.348Z,5.27
2019-04-21T17:48:52.931Z,4.23
2019-04-21T17:51:29.885Z,3.80
2019-04-21T17:54:13.551Z,3.83
2019-04-21T17:57:00.451Z,5.60
2019-04-21T17:59:35.927Z,4.87
2019-04-21T18:01:56.042Z,5.10
2019-04-21T18:04:28.848Z,4.67
2019-04-21T18:06:54.058Z,4.00
2019-04-21T18:09:34.875Z,4.30
2019-04-21T18:11:59.422Z,3.80
2019-04-21T18:14:09.491Z,4.67
2019-04-21T18:16:42.755Z,4.27
2019-04-21T18:19:08.852Z,4.27
2019-04-21T18:21:52.940Z,4.30
2019-04-21T18:24:23.036Z,4.10
2019-04-21T18:26:57.372Z,4.30
2019-04-21T18:29:23.594Z,7.23
2019-04-21T18:31:53.833Z,4.60
2019-04-21T18:34:42.830Z,5.63
2019-04-21T18:37:18.598Z,5.20
2019-04-21T18:39:52.695Z,5.27
2019-04-21T18:42:47.743Z,4.73
2019-04-21T18:48:14.328Z,7.93
2019-04-21T18:50:46.235Z,5.83
2019-04-21T18:53:32.163Z,6.33
2019-04-21T18:55:51.437Z,5.83
2019-04-21T18:58:18.081Z,5.87
2019-04-21T19:00:48.614Z,8.08
2019-04-21T19:03:25.287Z,7.13
2019-04-21T19:05:53.169Z,8.73
2019-04-21T19:08:30.681Z,6.15
2019-04-21T19:11:08.510Z,6.43
2019-04-21T19:13:54.514Z,6.73
2019-04-21T19:16:28.360Z,5.93
2019-04-21T19:18:48.290Z,7.43
2019-04-21T19:21:08.752Z,6.87
2019-04-21T19:23:45.620Z,6.87
2019-04-21T19:26:25.321Z,7.17
2019-04-21T19:28:47.180Z,7.47
2019-04-21T19:31:11.053Z,6.63
2019-04-21T19:33:33.348Z,7.10
2019-04-21T19:35:51.001Z,7.07
2019-04-21T19:38:30.143Z,7.47
2019-04-21T19:41:07.162Z,8.43
2019-04-21T19:43:41.652Z,8.17
2019-04-21T19:46:12.877Z,9.13
2019-04-21T19:48:44.569Z,8.28
2019-04-21T19:51:10.446Z,8.87
2019-04-21T19:53:35.664Z,12.20
2019-04-21T19:55:51.987Z,11.43
2019-04-21T19:58:31.222Z,12.45
2019-04-21T20:00:54.649Z,10.85
2019-04-21T20:03:21.179Z,9.70
2019-04-21T20:06:00.505Z,9.37
2019-04-21T20:08:32.594Z,9.77
2019-04-21T20:11:10.224Z,8.53
2019-04-21T20:13:56.889Z,9.47
2019-04-21T20:16:09.562Z,10.17
2019-04-21T20:18:27.270Z,10.13
2019-04-21T20:20:52.163Z,11.07
2019-04-21T20:23:27.739Z,11.20
2019-04-21T20:25:55.998Z,10.88
2019-04-21T20:28:34.510Z,10.40
2019-04-21T20:31:06.685Z,10.87
2019-04-21T20:38:31.213Z,10.13
2019-04-21T20:40:59.983Z,10.13
2019-04-21T20:43:44.523Z,9.30
2019-04-21T20:46:07.823Z,11.28
2019-04-21T20:48:41.475Z,9.55
2019-04-21T20:53:37.961Z,10.23
2019-04-21T20:56:02.376Z,11.20
2019-04-21T20:58:39.755Z,9.53
2019-04-21T21:01:25.407Z,9.83
2019-04-21T21:03:39.492Z,11.33
2019-04-21T21:06:08.023Z,11.07
2019-04-21T21:08:40.322Z,10.03
2019-04-21T21:11:06.852Z,9.40
2019-04-21T21:13:44.382Z,12.20
2019-04-21T21:18:59.550Z,10.37
2019-04-21T21:21:12.407Z,9.23
2019-04-21T21:23:44.015Z,8.78
2019-04-21T21:26:16.028Z,7.80
2019-04-21T21:28:37.462Z,7.95
2019-04-21T21:31:13.417Z,7.63
2019-04-21T21:33:50.748Z,7.53
2019-04-21T21:36:16.653Z,7.97
2019-04-21T21:38:42.941Z,9.00
2019-04-21T21:41:07.604Z,7.40
2019-04-21T21:43:28.712Z,7.67
2019-04-21T21:45:59.872Z,8.13
2019-04-21T21:48:40.846Z,9.37
2019-04-21T21:51:08.132Z,9.70
2019-04-21T21:53:28.851Z,8.93
2019-04-21T21:55:58.427Z,7.60
2019-04-21T21:58:33.115Z,7.20
2019-04-21T22:01:02.249Z,7.43
2019-04-21T22:03:33.460Z,7.03
2019-04-21T22:06:04.968Z,6.33
2019-04-21T22:08:28.264Z,6.53
2019-04-21T22:10:57.049Z,6.20
2019-04-21T22:13:34.048Z,6.73
2019-04-21T22:16:02.906Z,6.67
2019-04-21T22:18:44.025Z,7.03
2019-04-21T22:21:09.923Z,6.30
2019-04-21T22:23:36.780Z,7.43
2019-04-21T22:25:57.553Z,7.10
2019-04-21T22:28:27.427Z,6.93
2019-04-21T22:30:57.085Z,6.77
2019-04-21T22:33:25.976Z,6.70
2019-04-21T22:36:02.849Z,6.63
2019-04-21T22:38:38.873Z,7.00
2019-04-21T22:41:05.987Z,8.90
2019-04-21T22:43:32.460Z,6.60
2019-04-21T22:45:55.728Z,6.73
2019-04-21T22:48:27.261Z,6.28
2019-04-21T22:50:56.146Z,6.63
2019-04-21T22:53:29.121Z,7.33
2019-04-21T22:56:00.081Z,8.97
2019-04-21T22:58:31.705Z,6.17
2019-04-21T23:00:58.637Z,6.67
2019-04-21T23:03:28.160Z,6.83
2019-04-21T23:05:55.900Z,6.40
2019-04-21T23:08:31.770Z,7.13
2019-04-21T23:10:59.846Z,7.03
2019-04-21T23:13:25.962Z,7.27
2019-04-21T23:15:57.699Z,6.93
2019-04-21T23:18:40.083Z,7.80
2019-04-21T23:21:12.296Z,6.27
2019-04-21T23:23:44.179Z,7.07
2019-04-21T23:26:20.502Z,7.33
2019-04-21T23:28:45.616Z,7.40
2019-04-21T23:31:18.686Z,7.40
2019-04-21T23:33:27.545Z,7.00
2019-04-21T23:36:03.720Z,7.73
2019-04-21T23:38:33.155Z,6.37
2019-04-21T23:41:00.560Z,7.23
2019-04-21T23:43:30.036Z,6.60
2019-04-21T23:45:57.314Z,8.43
2019-04-21T23:48:36.409Z,6.17
2019-04-21T23:51:10.885Z,6.97
2019-04-21T23:53:26.139Z,9.33
2019-04-21T23:55:54.924Z,7.83
2019-04-21T23:58:26.419Z,7.72
